Time;durP1;ratioP1;P1;durP2;ratioP2;P2;SDS_P1;SDS_P2;PMS_P1;PMS_P2;Temp;Humidity;BMP_temperature;BMP_pressure;BME280_temperature;BME280_humidity;BME280_pressure;Samples;Min_cycle;Max_cycle;Signal;HPM_P1;HPM_P2
2023/05/06 00:01:23;;;;;;;2.47;1.65;;;;;;;;;;5080391;28;20035;-85
2023/05/06 00:03:51;;;;;;;7.00;2.17;;;;;;;;;;5082777;28;20419;-85
2023/05/06 00:06:17;;;;;;;4.13;2.63;;;;;;;;;;5075278;28;20028;-85
2023/05/06 00:08:45;;;;;;;4.07;2.22;;;;;;;;;;5072101;28;20032;-85
2023/05/06 00:11:19;;;;;;;4.18;2.00;;;;;;;;;;5081420;28;20056;-85
2023/05/06 00:13:45;;;;;;;3.70;1.83;;;;;;;;;;5076303;28;20036;-86
2023/05/06 00:16:13;;;;;;;5.18;2.88;;;;;;;;;;5083048;28;20049;-84
2023/05/06 00:18:42;;;;;;;3.58;2.22;;;;;;;;;;5078930;28;20163;-84
2023/05/06 00:21:08;;;;;;;3.55;1.80;;;;;;;;;;5079282;28;20376;-84
2023/05/06 00:23:39;;;;;;;4.57;2.40;;;;;;;;;;5080341;28;20035;-84
2023/05/06 00:26:17;;;;;;;3.97;2.50;;;;;;;;;;5081973;28;20071;-84
2023/05/06 00:28:43;;;;;;;3.67;2.10;;;;;;;;;;5073564;28;20078;-86
2023/05/06 00:31:08;;;;;;;4.53;2.22;;;;;;;;;;5076338;28;20107;-85
2023/05/06 00:33:34;;;;;;;3.25;1.80;;;;;;;;;;5085846;28;20026;-84
2023/05/06 00:36:02;;;;;;;6.45;3.08;;;;;;;;;;5083007;28;20540;-85
2023/05/06 00:38:28;;;;;;;6.15;4.57;;;;;;;;;;5111563;27;20724;-84
2023/05/06 00:40:54;;;;;;;4.43;2.63;;;;;;;;;;5083040;28;20032;-85
2023/05/06 00:43:19;;;;;;;3.22;1.98;;;;;;;;;;5082430;28;20036;-84
2023/05/06 00:45:49;;;;;;;3.13;1.80;;;;;;;;;;5081654;28;20020;-86
2023/05/06 00:48:15;;;;;;;;;;;;;;;;;;5086112;28;20107;-84
2023/05/06 00:50:40;;;;;;;2.10;1.38;;;;;;;;;;5120259;27;20324;-84
2023/05/06 00:53:11;;;;;;;4.80;1.77;;;;;;;;;;5071528;28;20020;-84
2023/05/06 00:55:37;;;;;;;5.80;2.45;;;;;;;;;;5072155;28;20384;-86
2023/05/06 00:58:04;;;;;;;2.83;2.05;;;;;;;;;;5084894;28;20044;-86
2023/05/06 01:00:29;;;;;;;4.22;2.53;;;;;;;;;;5079430;28;20387;-85
2023/05/06 01:02:55;;;;;;;8.90;2.28;;;;;;;;;;5086567;28;20028;-85
2023/05/06 01:05:22;;;;;;;3.30;1.95;;;;;;;;;;5073752;28;20110;-84
2023/05/06 01:08:01;;;;;;;2.72;1.67;;;;;;;;;;5079900;28;20062;-84
2023/05/06 01:10:49;;;;;;;4.70;2.65;;;;;;;;;;5077217;28;20027;-84
2023/05/06 01:13:37;;;;;;;3.90;2.13;;;;;;;;;;5083834;28;20384;-82
2023/05/06 01:16:07;;;;;;;4.78;2.08;;;;;;;;;;5078384;28;20096;-85
2023/05/06 01:18:41;;;;;;;3.78;1.90;;;;;;;;;;5120168;27;20536;-85
2023/05/06 01:21:11;;;;;;;6.00;2.45;;;;;;;;;;5085158;28;20033;-85
2023/05/06 01:24:07;;;;;;;4.18;2.25;;;;;;;;;;5083114;28;20107;-84
2023/05/06 01:26:43;;;;;;;4.03;1.88;;;;;;;;;;5080629;28;20425;-87
2023/05/06 01:29:30;;;;;;;4.30;2.08;;;;;;;;;;5080286;28;20039;-86
2023/05/06 01:32:11;;;;;;;5.95;2.95;;;;;;;;;;5084004;28;20032;-86
2023/05/06 01:34:48;;;;;;;3.53;2.03;;;;;;;;;;5080057;28;20044;-85
2023/05/06 01:37:59;;;;;;;5.68;1.90;;;;;;;;;;5078700;28;20498;-85
2023/05/06 01:40:29;;;;;;;3.38;2.33;;;;;;;;;;5077900;28;20537;-85
2023/05/06 01:43:15;;;;;;;5.50;2.38;;;;;;;;;;5109568;28;20052;-87
2023/05/06 01:45:52;;;;;;;4.13;2.25;;;;;;;;;;5079792;28;20024;-86
2023/05/06 01:48:52;;;;;;;4.20;2.13;;;;;;;;;;5077982;28;20024;-88
2023/05/06 01:51:23;;;;;;;1.92;1.50;;;;;;;;;;5083649;28;20106;-85
2023/05/06 01:53:48;;;;;;;3.65;2.53;;;;;;;;;;5073481;28;20028;-87
2023/05/06 01:56:16;;;;;;;6.97;3.22;;;;;;;;;;5080781;28;20469;-84
2023/05/06 01:58:47;;;;;;;3.75;2.25;;;;;;;;;;5073315;28;20031;-86
2023/05/06 02:01:23;;;;;;;3.80;1.88;;;;;;;;;;5078204;28;20040;-85
2023/05/06 02:03:57;;;;;;;5.55;2.55;;;;;;;;;;5071922;28;20028;-84
2023/05/06 02:06:33;;;;;;;;;;;;;;;;;;;;;
2023/05/06 02:09:03;;;;;;;4.55;2.08;;;;;;;;;;5081267;28;20036;-85
2023/05/06 02:11:28;;;;;;;3.40;2.27;;;;;;;;;;5076602;28;20028;-85
2023/05/06 02:14:04;;;;;;;4.22;2.25;;;;;;;;;;5074460;28;20866;-83
2023/05/06 02:16:29;;;;;;;3.08;1.90;;;;;;;;;;5076598;28;20111;-85
2023/05/06 02:18:55;;;;;;;3.05;1.70;;;;;;;;;;5083370;28;20099;-83
2023/05/06 02:21:21;;;;;;;3.58;1.33;;;;;;;;;;5070462;28;20391;-86
2023/05/06 02:23:49;;;;;;;4.40;1.98;;;;;;;;;;5086277;28;20020;-85
2023/05/06 02:26:30;;;;;;;2.53;1.33;;;;;;;;;;5069769;28;20032;-86
2023/05/06 02:29:02;;;;;;;3.13;1.73;;;;;;;;;;5076464;28;20058;-87
2023/05/06 02:31:36;;;;;;;6.32;2.70;;;;;;;;;;5082467;28;20051;-85
2023/05/06 02:34:01;;;;;;;3.40;1.77;;;;;;;;;;5083596;28;20030;-84
2023/05/06 02:36:31;;;;;;;2.40;1.33;;;;;;;;;;5085136;28;20036;-86
2023/05/06 02:39:20;;;;;;;3.78;1.73;;;;;;;;;;5085007;28;20052;-86
2023/05/06 02:41:45;;;;;;;1.70;1.25;;;;;;;;;;5079705;28;21317;-88
2023/05/06 02:44:11;;;;;;;3.90;1.80;;;;;;;;;;5081844;28;20127;-88
2023/05/06 02:46:40;;;;;;;4.25;2.00;;;;;;;;;;5112877;27;20080;-87
2023/05/06 02:49:14;;;;;;;5.53;2.95;;;;;;;;;;5073218;28;20534;-87
2023/05/06 02:51:49;;;;;;;5.40;2.53;;;;;;;;;;5082192;28;20479;-87
2023/05/06 02:54:14;;;;;;;3.38;1.90;;;;;;;;;;5079524;28;20115;-87
2023/05/06 02:56:48;;;;;;;4.00;2.08;;;;;;;;;;5078406;28;20108;-85
2023/05/06 02:59:17;;;;;;;2.97;2.00;;;;;;;;;;5066405;28;20032;-86
2023/05/06 03:01:43;;;;;;;4.13;2.60;;;;;;;;;;5074431;28;20028;-86
2023/05/06 03:04:08;;;;;;;2.72;2.00;;;;;;;;;;5077356;28;20554;-86
2023/05/06 03:06:36;;;;;;;3.78;2.03;;;;;;;;;;5081503;28;20020;-86
2023/05/06 03:09:14;;;;;;;4.50;1.90;;;;;;;;;;5084938;28;20425;-87
2023/05/06 03:11:48;;;;;;;3.38;1.92;;;;;;;;;;5087559;28;20084;-86
2023/05/06 03:14:17;;;;;;;4.28;2.33;;;;;;;;;;5084219;28;20035;-85
2023/05/06 03:16:48;;;;;;;3.17;2.15;;;;;;;;;;5077545;28;20530;-85
2023/05/06 03:19:21;;;;;;;3.72;1.83;;;;;;;;;;5078829;28;20044;-85
2023/05/06 03:21:55;;;;;;;4.43;1.95;;;;;;;;;;5087423;28;20031;-85
2023/05/06 03:24:23;;;;;;;7.68;1.98;;;;;;;;;;5082542;28;20032;-87
2023/05/06 03:26:49;;;;;;;2.97;1.58;;;;;;;;;;5073574;28;20032;-86
2023/05/06 03:29:18;;;;;;;4.95;2.22;;;;;;;;;;5080214;28;20106;-84
2023/05/06 03:31:43;;;;;;;2.60;1.52;;;;;;;;;;5086621;28;20036;-87
2023/05/06 03:34:14;;;;;;;4.38;2.78;;;;;;;;;;5077364;28;20369;-88
2023/05/06 03:36:40;;;;;;;3.92;2.20;;;;;;;;;;5081542;28;20104;-87
2023/05/06 03:39:14;;;;;;;4.00;2.80;;;;;;;;;;5083125;28;20050;-85
2023/05/06 03:41:39;;;;;;;3.90;2.22;;;;;;;;;;5086605;28;20035;-85
2023/05/06 03:44:05;;;;;;;4.10;2.08;;;;;;;;;;5080852;28;20023;-87
2023/05/06 03:46:31;;;;;;;3.80;1.92;;;;;;;;;;5085504;28;20024;-86
2023/05/06 03:49:21;;;;;;;3.33;1.95;;;;;;;;;;5080589;28;20037;-87
2023/05/06 03:51:55;;;;;;;3.20;2.08;;;;;;;;;;5079687;28;20032;-85
2023/05/06 03:54:27;;;;;;;3.17;1.77;;;;;;;;;;5082575;28;20418;-87
2023/05/06 03:56:53;;;;;;;2.05;1.67;;;;;;;;;;5072807;28;20036;-87
2023/05/06 03:59:22;;;;;;;3.83;2.15;;;;;;;;;;5074930;28;20476;-87
2023/05/06 04:01:53;;;;;;;6.53;2.58;;;;;;;;;;5080795;28;20102;-87
2023/05/06 04:04:26;;;;;;;3.50;2.00;;;;;;;;;;5075131;28;20112;-84
2023/05/06 04:06:54;;;;;;;6.03;2.83;;;;;;;;;;5077088;28;20478;-83
2023/05/06 04:09:20;;;;;;;5.20;2.60;;;;;;;;;;5084306;28;20059;-88
2023/05/06 04:11:51;;;;;;;8.20;2.40;;;;;;;;;;5075986;28;20056;-87
2023/05/06 04:14:25;;;;;;;11.52;3.17;;;;;;;;;;5078523;28;20387;-85
2023/05/06 04:16:51;;;;;;;4.00;2.45;;;;;;;;;;5083940;28;20028;-84
2023/05/06 04:19:20;;;;;;;4.00;1.92;;;;;;;;;;5084187;28;20520;-85
2023/05/06 04:21:46;;;;;;;4.28;2.72;;;;;;;;;;5081568;28;20024;-85
2023/05/06 04:24:16;;;;;;;4.55;2.88;;;;;;;;;;5077019;28;20424;-86
2023/05/06 04:26:42;;;;;;;4.85;2.97;;;;;;;;;;5075088;28;20040;-88
2023/05/06 04:29:14;;;;;;;5.03;2.83;;;;;;;;;;5080075;28;20024;-86
2023/05/06 04:31:40;;;;;;;2.65;1.95;;;;;;;;;;5081982;28;20052;-85
2023/05/06 04:34:37;;;;;;;4.90;3.00;;;;;;;;;;5079020;28;20033;-87
2023/05/06 04:40:28;;;;;;;6.07;3.03;;;;;;;;;;5071709;28;20041;-89
2023/05/06 04:42:54;;;;;;;4.40;3.17;;;;;;;;;;5084050;28;20450;-88
2023/05/06 04:45:38;;;;;;;5.38;3.58;;;;;;;;;;5055613;28;20148;-89
2023/05/06 04:48:12;;;;;;;8.13;3.10;;;;;;;;;;5052226;28;20036;-86
2023/05/06 04:57:08;;;;;;;6.35;3.20;;;;;;;;;;5019956;28;20600;-85
2023/05/06 04:59:33;;;;;;;6.88;3.55;;;;;;;;;;5061918;28;20028;-85
2023/05/06 05:01:58;;;;;;;6.13;3.53;;;;;;;;;;5043507;28;20028;-87
2023/05/06 05:04:25;;;;;;;6.25;2.58;;;;;;;;;;5036108;28;20040;-86
2023/05/06 05:06:50;;;;;;;6.18;2.97;;;;;;;;;;5038758;28;20057;-85
2023/05/06 05:09:16;;;;;;;5.53;2.80;;;;;;;;;;5059145;28;20067;-85
2023/05/06 05:11:41;;;;;;;5.97;3.38;;;;;;;;;;5057596;28;20059;-89
2023/05/06 05:14:06;;;;;;;6.75;3.75;;;;;;;;;;5073116;28;20058;-86
2023/05/06 05:16:32;;;;;;;5.78;3.08;;;;;;;;;;5051486;28;20501;-89
2023/05/06 05:18:57;;;;;;;10.43;3.20;;;;;;;;;;5042486;28;20037;-88
2023/05/06 05:21:23;;;;;;;7.32;3.13;;;;;;;;;;5036708;28;20033;-88
2023/05/06 05:23:48;;;;;;;5.57;3.17;;;;;;;;;;5081255;28;20083;-86
2023/05/06 05:26:14;;;;;;;3.83;2.72;;;;;;;;;;5078259;28;20488;-86
2023/05/06 05:28:39;;;;;;;5.72;3.50;;;;;;;;;;5082391;28;20027;-87
2023/05/06 05:31:05;;;;;;;5.60;3.75;;;;;;;;;;5082099;28;20021;-90
2023/05/06 05:33:30;;;;;;;7.10;3.80;;;;;;;;;;5078467;28;20068;-87
2023/05/06 05:35:57;;;;;;;4.00;2.60;;;;;;;;;;5072006;28;20045;-88
2023/05/06 05:38:22;;;;;;;6.90;3.75;;;;;;;;;;5079278;28;20039;-89
2023/05/06 05:40:47;;;;;;;5.97;2.90;;;;;;;;;;5082424;28;20435;-89
2023/05/06 05:43:13;;;;;;;6.07;3.33;;;;;;;;;;5075236;28;20028;-87
2023/05/06 05:45:38;;;;;;;5.15;3.38;;;;;;;;;;5078679;28;20108;-89
2023/05/06 05:48:04;;;;;;;4.57;2.92;;;;;;;;;;5082055;28;20028;-85
2023/05/06 05:50:29;;;;;;;8.52;4.15;;;;;;;;;;5081292;28;20032;-89
2023/05/06 05:52:55;;;;;;;7.93;4.10;;;;;;;;;;5077596;28;20029;-88
2023/05/06 05:55:20;;;;;;;9.07;3.35;;;;;;;;;;5078095;28;20017;-87
2023/05/06 05:57:46;;;;;;;8.43;4.05;;;;;;;;;;5081338;28;20028;-88
2023/05/06 06:00:11;;;;;;;8.95;4.72;;;;;;;;;;5083357;28;20028;-90
2023/05/06 06:02:37;;;;;;;10.07;4.53;;;;;;;;;;5078616;28;20024;-88
2023/05/06 06:05:03;;;;;;;4.88;2.90;;;;;;;;;;5083496;28;20056;-88
2023/05/06 06:07:28;;;;;;;5.28;3.40;;;;;;;;;;5082500;28;20270;-89
2023/05/06 06:09:53;;;;;;;11.32;2.88;;;;;;;;;;5079139;28;20068;-89
2023/05/06 06:12:19;;;;;;;4.57;2.97;;;;;;;;;;5081533;28;20110;-87
2023/05/06 06:14:46;;;;;;;5.25;3.47;;;;;;;;;;5078270;28;20016;-87
2023/05/06 06:17:15;;;;;;;6.15;3.97;;;;;;;;;;5083399;28;20028;-87
2023/05/06 06:19:42;;;;;;;5.38;2.88;;;;;;;;;;5083656;28;20021;-87
2023/05/06 06:22:07;;;;;;;6.32;3.38;;;;;;;;;;5084078;28;20036;-88
2023/05/06 06:24:33;;;;;;;4.70;2.95;;;;;;;;;;5085370;28;20028;-88
2023/05/06 06:27:01;;;;;;;8.38;3.60;;;;;;;;;;5085465;28;20558;-84
2023/05/06 06:29:27;;;;;;;5.78;3.47;;;;;;;;;;5085141;28;20032;-90
2023/05/06 06:31:54;;;;;;;6.68;3.58;;;;;;;;;;5082013;28;20051;-89
2023/05/06 06:34:20;;;;;;;6.50;3.55;;;;;;;;;;5086239;28;20147;-89
2023/05/06 06:36:46;;;;;;;8.60;4.82;;;;;;;;;;5085881;28;20507;-90
2023/05/06 06:39:11;;;;;;;8.60;3.65;;;;;;;;;;5085245;28;20052;-90
2023/05/06 06:41:37;;;;;;;5.60;3.28;;;;;;;;;;5083540;28;20029;-88
2023/05/06 06:44:03;;;;;;;4.72;2.50;;;;;;;;;;5079674;28;20040;-87
2023/05/06 06:46:28;;;;;;;6.10;3.58;;;;;;;;;;5076998;28;20032;-88
2023/05/06 06:48:54;;;;;;;7.38;4.10;;;;;;;;;;5078403;28;20381;-87
2023/05/06 06:51:19;;;;;;;7.82;3.55;;;;;;;;;;5077183;28;20052;-87
2023/05/06 06:53:47;;;;;;;6.78;3.38;;;;;;;;;;5079792;28;20029;-88
2023/05/06 06:56:12;;;;;;;9.48;3.15;;;;;;;;;;5079147;28;20016;-87
2023/05/06 06:58:38;;;;;;;6.75;3.85;;;;;;;;;;5081278;28;20464;-87
2023/05/06 07:01:03;;;;;;;3.92;2.33;;;;;;;;;;5085058;28;20027;-86
2023/05/06 07:03:29;;;;;;;3.92;2.47;;;;;;;;;;5084430;28;20044;-89
2023/05/06 07:05:54;;;;;;;4.40;2.88;;;;;;;;;;5083093;28;20781;-87
2023/05/06 07:08:21;;;;;;;5.30;2.63;;;;;;;;;;5078931;28;20473;-87
2023/05/06 07:10:46;;;;;;;3.33;2.10;;;;;;;;;;5079996;28;20464;-87
2023/05/06 07:13:12;;;;;;;3.88;2.67;;;;;;;;;;5080946;28;20035;-86
2023/05/06 07:15:40;;;;;;;3.95;2.33;;;;;;;;;;5077990;28;20048;-89
2023/05/06 07:18:06;;;;;;;5.63;3.28;;;;;;;;;;5081824;28;20378;-88
2023/05/06 07:20:32;;;;;;;5.25;2.80;;;;;;;;;;5086605;28;20031;-85
2023/05/06 07:22:58;;;;;;;4.75;2.75;;;;;;;;;;5080848;28;20029;-85
2023/05/06 07:25:23;;;;;;;5.38;3.00;;;;;;;;;;5080457;28;20084;-87
2023/05/06 07:27:49;;;;;;;6.25;3.40;;;;;;;;;;5073413;28;20102;-87
2023/05/06 07:30:15;;;;;;;7.88;2.78;;;;;;;;;;5087119;28;20032;-83
2023/05/06 07:32:40;;;;;;;5.32;3.13;;;;;;;;;;5084041;28;20032;-86
2023/05/06 07:35:06;;;;;;;3.95;2.40;;;;;;;;;;5075713;28;20549;-88
2023/05/06 07:37:32;;;;;;;4.10;2.40;;;;;;;;;;5078472;28;20392;-85
2023/05/06 07:39:57;;;;;;;6.25;3.47;;;;;;;;;;5077892;28;20021;-89
2023/05/06 07:42:22;;;;;;;8.20;3.72;;;;;;;;;;5074365;28;20017;-88
2023/05/06 07:44:48;;;;;;;5.82;3.22;;;;;;;;;;5080647;28;20068;-89
2023/05/06 07:47:24;;;;;;;5.53;3.15;;;;;;;;;;5075785;28;20419;-84
2023/05/06 07:49:50;;;;;;;4.68;2.90;;;;;;;;;;5081778;28;20077;-86
2023/05/06 07:52:15;;;;;;;3.72;2.22;;;;;;;;;;5081941;28;20040;-91
2023/05/06 07:54:41;;;;;;;5.90;2.97;;;;;;;;;;5083069;28;20091;-87
2023/05/06 07:57:08;;;;;;;5.30;2.75;;;;;;;;;;5079614;28;20032;-89
2023/05/06 07:59:33;;;;;;;5.45;3.08;;;;;;;;;;5076423;28;20484;-87
2023/05/06 08:01:59;;;;;;;5.32;3.20;;;;;;;;;;5077396;28;20052;-86
2023/05/06 08:04:24;;;;;;;5.00;2.85;;;;;;;;;;5075893;28;20020;-87
2023/05/06 08:06:50;;;;;;;5.70;2.28;;;;;;;;;;5075793;28;20029;-85
2023/05/06 08:09:15;;;;;;;5.63;3.05;;;;;;;;;;5081839;28;20071;-84
2023/05/06 08:11:41;;;;;;;5.13;2.83;;;;;;;;;;5078724;28;20036;-87
2023/05/06 08:14:06;;;;;;;5.68;2.92;;;;;;;;;;5081036;28;20388;-87
2023/05/06 08:16:31;;;;;;;5.47;3.42;;;;;;;;;;5081734;28;20027;-88
2023/05/06 08:18:57;;;;;;;6.30;2.92;;;;;;;;;;5081182;28;20515;-81
2023/05/06 08:21:22;;;;;;;5.05;3.47;;;;;;;;;;5084590;28;20020;-88
2023/05/06 08:23:48;;;;;;;4.75;3.20;;;;;;;;;;5078991;28;20086;-90
2023/05/06 08:26:13;;;;;;;5.10;3.17;;;;;;;;;;5086518;28;20483;-90
2023/05/06 08:28:38;;;;;;;5.40;3.05;;;;;;;;;;5080041;28;20115;-91
2023/05/06 08:31:04;;;;;;;4.50;2.50;;;;;;;;;;5074742;28;20422;-85
2023/05/06 08:33:30;;;;;;;6.13;3.72;;;;;;;;;;5080861;28;20028;-91
2023/05/06 08:35:57;;;;;;;6.60;3.33;;;;;;;;;;5081811;28;20045;-90
2023/05/06 08:38:23;;;;;;;6.13;3.20;;;;;;;;;;5078921;28;20036;-91
2023/05/06 08:41:08;;;;;;;5.82;3.42;;;;;;;;;;5085201;28;20032;-88
2023/05/06 08:43:41;;;;;;;6.22;3.85;;;;;;;;;;5076322;28;20036;-83
2023/05/06 08:46:07;;;;;;;5.82;3.88;;;;;;;;;;5079973;28;20055;-88
2023/05/06 08:48:49;;;;;;;5.65;3.03;;;;;;;;;;5071020;28;20024;-87
2023/05/06 08:51:42;;;;;;;;;;;;;;;;;;;;;
2023/05/06 08:54:24;;;;;;;5.30;2.97;;;;;;;;;;5067359;28;20503;-90
2023/05/06 08:56:57;;;;;;;5.25;3.47;;;;;;;;;;5083559;28;20036;-88
2023/05/06 08:59:37;;;;;;;5.00;3.20;;;;;;;;;;5072360;28;20024;-86
2023/05/06 09:02:15;;;;;;;7.80;3.80;;;;;;;;;;5073025;28;20036;-86
2023/05/06 09:05:10;;;;;;;5.68;3.28;;;;;;;;;;5078828;28;20040;-89
2023/05/06 09:07:36;;;;;;;10.98;3.60;;;;;;;;;;5084456;28;20034;-86
2023/05/06 09:10:12;;;;;;;5.28;3.50;;;;;;;;;;5076205;28;20021;-85
2023/05/06 09:12:47;;;;;;;7.75;3.90;;;;;;;;;;5070585;28;20107;-86
2023/05/06 09:15:46;;;;;;;10.55;4.22;;;;;;;;;;5071885;28;20060;-86
2023/05/06 09:18:30;;;;;;;5.60;3.40;;;;;;;;;;5076971;28;20047;-87
2023/05/06 09:20:56;;;;;;;4.88;3.15;;;;;;;;;;5080817;28;20257;-87
2023/05/06 09:23:22;;;;;;;5.50;3.30;;;;;;;;;;5110002;27;20028;-88
2023/05/06 09:28:44;;;;;;;6.82;3.58;;;;;;;;;;5065792;28;20044;-87
2023/05/06 09:31:16;;;;;;;4.43;2.78;;;;;;;;;;5071250;28;20417;-86
2023/05/06 09:33:44;;;;;;;5.88;3.97;;;;;;;;;;5077903;28;20024;-87
2023/05/06 09:36:14;;;;;;;7.32;4.10;;;;;;;;;;5080463;28;20056;-89
2023/05/06 09:38:55;;;;;;;6.18;3.25;;;;;;;;;;5082478;28;20373;-88
2023/05/06 09:41:24;;;;;;;7.45;3.25;;;;;;;;;;5074875;28;20028;-85
2023/05/06 09:43:58;;;;;;;6.00;3.10;;;;;;;;;;5078550;28;20033;-88
2023/05/06 09:46:39;;;;;;;4.60;2.88;;;;;;;;;;5076059;28;20109;-90
2023/05/06 09:49:09;;;;;;;5.38;2.80;;;;;;;;;;5073429;28;20471;-86
2023/05/06 09:51:57;;;;;;;5.78;3.40;;;;;;;;;;5076033;28;20459;-89
2023/05/06 09:54:38;;;;;;;5.90;3.72;;;;;;;;;;5081668;28;20042;-88
2023/05/06 09:57:14;;;;;;;;;;;;;;;;;;;;;
2023/05/06 09:59:46;;;;;;;6.00;3.67;;;;;;;;;;5077723;28;20400;-89
2023/05/06 10:02:18;;;;;;;5.43;3.50;;;;;;;;;;5081616;28;20020;-91
2023/05/06 10:07:48;;;;;;;4.85;3.45;;;;;;;;;;5068981;28;20052;-86
2023/05/06 10:10:20;;;;;;;4.53;2.78;;;;;;;;;;5080993;28;20097;-87
2023/05/06 10:12:54;;;;;;;8.52;3.55;;;;;;;;;;5073729;28;20388;-87
2023/05/06 10:15:35;;;;;;;6.25;3.78;;;;;;;;;;5072927;28;20028;-89
2023/05/06 10:18:03;;;;;;;5.88;3.63;;;;;;;;;;5078447;28;20110;-87
2023/05/06 10:20:30;;;;;;;5.68;3.17;;;;;;;;;;5081579;28;20475;-84
2023/05/06 10:23:27;;;;;;;5.13;3.17;;;;;;;;;;5075110;28;20033;-86
2023/05/06 10:25:56;;;;;;;4.90;2.88;;;;;;;;;;5074825;28;20127;-85
2023/05/06 10:28:24;;;;;;;5.38;3.63;;;;;;;;;;5070712;28;20035;-85
2023/05/06 10:30:52;;;;;;;5.32;3.40;;;;;;;;;;5071973;28;20605;-88
2023/05/06 10:33:18;;;;;;;3.80;2.35;;;;;;;;;;5080105;28;20036;-88
2023/05/06 10:35:53;;;;;;;4.93;2.42;;;;;;;;;;5067692;28;20121;-86
2023/05/06 10:38:42;;;;;;;3.83;2.58;;;;;;;;;;5075253;28;20146;-85
2023/05/06 10:41:08;;;;;;;7.38;3.42;;;;;;;;;;5078536;28;20070;-88
2023/05/06 10:43:38;;;;;;;3.58;2.50;;;;;;;;;;5079392;28;20392;-90
2023/05/06 10:46:08;;;;;;;;;;;;;;;;;;5072848;28;20021;-89
2023/05/06 10:48:35;;;;;;;3.03;2.15;;;;;;;;;;5083791;28;19943;-87
2023/05/06 10:51:12;;;;;;;4.57;2.95;;;;;;;;;;5077279;28;20430;-88
2023/05/06 10:54:10;;;;;;;7.72;2.90;;;;;;;;;;5073231;28;20028;-86
2023/05/06 10:56:38;;;;;;;4.28;2.40;;;;;;;;;;5083493;28;20024;-84
2023/05/06 10:59:11;;;;;;;6.50;2.50;;;;;;;;;;5073120;28;20492;-85
2023/05/06 11:01:41;;;;;;;7.50;2.38;;;;;;;;;;5073588;28;20029;-86
2023/05/06 11:04:14;;;;;;;4.28;2.60;;;;;;;;;;5081334;28;20033;-84
2023/05/06 11:06:47;;;;;;;2.95;2.15;;;;;;;;;;5075800;28;20554;-84
2023/05/06 11:09:16;;;;;;;3.88;2.40;;;;;;;;;;5071072;28;20029;-87
2023/05/06 11:12:03;;;;;;;4.45;2.35;;;;;;;;;;5107688;27;20024;-84
2023/05/06 11:14:36;;;;;;;4.47;1.98;;;;;;;;;;5075070;28;20468;-88
2023/05/06 11:17:27;;;;;;;4.00;2.00;;;;;;;;;;5075050;28;20134;-87
2023/05/06 11:20:25;;;;;;;3.72;2.38;;;;;;;;;;5083493;28;20085;-87
2023/05/06 11:22:53;;;;;;;4.13;2.67;;;;;;;;;;5084839;28;20020;-83
2023/05/06 11:25:40;;;;;;;4.05;2.33;;;;;;;;;;5079435;28;20020;-87
2023/05/06 11:28:11;;;;;;;2.63;2.00;;;;;;;;;;5072000;28;20115;-88
2023/05/06 11:30:41;;;;;;;3.80;2.50;;;;;;;;;;5071499;28;20032;-83
2023/05/06 11:33:07;;;;;;;2.80;2.10;;;;;;;;;;5079284;28;20499;-86
2023/05/06 11:35:36;;;;;;;3.10;2.08;;;;;;;;;;5073156;28;20110;-87
2023/05/06 11:38:02;;;;;;;2.95;2.33;;;;;;;;;;5081339;28;20028;-86
2023/05/06 11:40:29;;;;;;;5.40;2.53;;;;;;;;;;5077108;28;20032;-89
2023/05/06 11:42:55;;;;;;;2.50;1.95;;;;;;;;;;5079161;28;20024;-88
2023/05/06 11:45:20;;;;;;;3.47;2.05;;;;;;;;;;5084779;28;20020;-86
2023/05/06 11:47:46;;;;;;;4.10;2.05;;;;;;;;;;5077792;28;20483;-88
2023/05/06 11:50:11;;;;;;;5.45;2.22;;;;;;;;;;5079101;28;20467;-85
2023/05/06 11:52:36;;;;;;;6.85;2.38;;;;;;;;;;5075259;28;20025;-87
2023/05/06 11:55:08;;;;;;;4.35;2.50;;;;;;;;;;5079529;28;20024;-86
2023/05/06 11:57:34;;;;;;;3.35;2.00;;;;;;;;;;5075096;28;20380;-84
2023/05/06 11:59:59;;;;;;;4.30;2.38;;;;;;;;;;5071468;28;20031;-90
2023/05/06 12:02:25;;;;;;;3.08;1.88;;;;;;;;;;5081963;28;20429;-86
2023/05/06 12:04:51;;;;;;;3.33;2.38;;;;;;;;;;5077517;28;20024;-89
2023/05/06 12:07:16;;;;;;;2.55;1.98;;;;;;;;;;5078397;28;20071;-84
2023/05/06 12:09:46;;;;;;;3.47;2.33;;;;;;;;;;5080168;28;20024;-89
2023/05/06 12:12:17;;;;;;;3.33;2.13;;;;;;;;;;5082643;28;20109;-86
2023/05/06 12:14:45;;;;;;;2.55;1.70;;;;;;;;;;5081588;28;20541;-86
2023/05/06 12:17:11;;;;;;;2.78;1.95;;;;;;;;;;5075014;28;20035;-87
2023/05/06 12:19:37;;;;;;;4.97;2.45;;;;;;;;;;5080707;28;20025;-85
2023/05/06 12:22:19;;;;;;;3.90;2.15;;;;;;;;;;5076720;28;20021;-84
2023/05/06 12:24:48;;;;;;;3.60;1.80;;;;;;;;;;5074561;28;20028;-86
2023/05/06 12:27:27;;;;;;;2.88;1.67;;;;;;;;;;5077953;28;20028;-82
2023/05/06 12:29:52;;;;;;;2.45;1.98;;;;;;;;;;5077333;28;20422;-84
2023/05/06 12:32:18;;;;;;;3.13;2.13;;;;;;;;;;5085267;28;20028;-87
2023/05/06 12:34:43;;;;;;;3.60;2.13;;;;;;;;;;5080717;28;20131;-82
2023/05/06 12:37:08;;;;;;;1.73;1.38;;;;;;;;;;5081248;28;20464;-82
2023/05/06 12:39:36;;;;;;;4.00;2.33;;;;;;;;;;5083002;28;20024;-85
2023/05/06 12:42:02;;;;;;;2.60;1.80;;;;;;;;;;5077351;28;20433;-81
2023/05/06 12:44:39;;;;;;;3.55;2.28;;;;;;;;;;5073785;28;20029;-85
2023/05/06 12:47:07;;;;;;;3.13;2.40;;;;;;;;;;5078762;28;20427;-81
2023/05/06 12:49:52;;;;;;;3.20;2.20;;;;;;;;;;5079116;28;20028;-83
2023/05/06 12:52:20;;;;;;;3.50;2.10;;;;;;;;;;5079642;28;20080;-82
2023/05/06 12:54:46;;;;;;;3.42;2.30;;;;;;;;;;5079146;28;20021;-87
2023/05/06 12:57:11;;;;;;;6.28;2.38;;;;;;;;;;5073501;28;20032;-86
2023/05/06 12:59:37;;;;;;;3.25;2.22;;;;;;;;;;5079623;28;20031;-83
2023/05/06 13:02:03;;;;;;;2.88;2.22;;;;;;;;;;5075624;28;20063;-81
2023/05/06 13:04:30;;;;;;;3.08;2.05;;;;;;;;;;5078655;28;20435;-82
2023/05/06 13:06:55;;;;;;;4.63;2.30;;;;;;;;;;5080358;28;20027;-85
2023/05/06 13:09:21;;;;;;;3.55;2.45;;;;;;;;;;5085000;28;20028;-84
2023/05/06 13:11:47;;;;;;;3.28;2.40;;;;;;;;;;5115487;27;20495;-86
2023/05/06 13:14:12;;;;;;;3.05;2.08;;;;;;;;;;5072048;28;20162;-84
2023/05/06 13:16:38;;;;;;;4.35;2.35;;;;;;;;;;5070039;28;20111;-83
2023/05/06 13:19:04;;;;;;;3.53;2.28;;;;;;;;;;5080092;28;20051;-83
2023/05/06 13:21:33;;;;;;;2.28;1.70;;;;;;;;;;5075467;28;20481;-83
2023/05/06 13:23:58;;;;;;;3.17;2.27;;;;;;;;;;5082377;28;20028;-84
2023/05/06 13:26:24;;;;;;;3.30;2.22;;;;;;;;;;5073224;28;20017;-88
2023/05/06 13:28:50;;;;;;;3.35;2.53;;;;;;;;;;5076986;28;20097;-86
2023/05/06 13:31:15;;;;;;;8.07;2.70;;;;;;;;;;5083425;28;20032;-85
2023/05/06 13:33:41;;;;;;;8.85;2.13;;;;;;;;;;5081558;28;20024;-86
2023/05/06 13:36:06;;;;;;;9.18;2.38;;;;;;;;;;5080946;28;20044;-88
2023/05/06 13:38:32;;;;;;;4.32;1.98;;;;;;;;;;5080206;28;20059;-88
2023/05/06 13:40:57;;;;;;;3.60;2.67;;;;;;;;;;5078230;28;20017;-85
2023/05/06 13:43:26;;;;;;;3.60;2.40;;;;;;;;;;5110673;28;20020;-85
2023/05/06 13:45:52;;;;;;;12.77;3.00;;;;;;;;;;5082600;28;20020;-86
2023/05/06 13:48:17;;;;;;;3.17;2.33;;;;;;;;;;5077656;28;20024;-85
2023/05/06 13:50:47;;;;;;;8.02;2.60;;;;;;;;;;5080014;28;20032;-89
2023/05/06 13:53:13;;;;;;;5.55;2.60;;;;;;;;;;5076221;28;20490;-89
2023/05/06 13:55:39;;;;;;;5.55;2.20;;;;;;;;;;5079184;28;20455;-89
2023/05/06 13:58:05;;;;;;;4.00;2.60;;;;;;;;;;5084191;28;20031;-83
2023/05/06 14:00:31;;;;;;;4.38;2.45;;;;;;;;;;5075810;28;20136;-83
2023/05/06 14:02:57;;;;;;;3.33;2.15;;;;;;;;;;5089842;28;20028;-89
2023/05/06 14:05:22;;;;;;;3.38;2.38;;;;;;;;;;5077841;28;20063;-88
2023/05/06 14:07:47;;;;;;;5.05;2.67;;;;;;;;;;5078836;28;20028;-86
2023/05/06 14:10:13;;;;;;;4.03;2.10;;;;;;;;;;5081583;28;20098;-86
2023/05/06 14:12:39;;;;;;;2.92;2.28;;;;;;;;;;5080443;28;20027;-89
2023/05/06 14:15:06;;;;;;;9.27;2.10;;;;;;;;;;5070099;28;20105;-85
2023/05/06 14:17:31;;;;;;;4.43;2.45;;;;;;;;;;5077943;28;20107;-84
2023/05/06 14:19:56;;;;;;;2.88;2.08;;;;;;;;;;5082222;28;20425;-87
2023/05/06 14:22:22;;;;;;;3.20;2.35;;;;;;;;;;5086073;28;20031;-84
2023/05/06 14:24:47;;;;;;;3.25;2.25;;;;;;;;;;5073184;28;20047;-84
2023/05/06 14:27:13;;;;;;;2.72;1.70;;;;;;;;;;5083015;28;20095;-87
2023/05/06 14:29:41;;;;;;;3.78;2.53;;;;;;;;;;5080715;28;20024;-84
2023/05/06 14:32:07;;;;;;;3.80;2.05;;;;;;;;;;5080798;28;20028;-82
2023/05/06 14:34:34;;;;;;;3.80;2.38;;;;;;;;;;5082458;28;20044;-86
2023/05/06 14:37:00;;;;;;;3.78;2.15;;;;;;;;;;5085968;28;20511;-89
2023/05/06 14:39:25;;;;;;;3.38;2.10;;;;;;;;;;5081191;28;20048;-89
2023/05/06 14:41:50;;;;;;;3.25;2.10;;;;;;;;;;5086319;28;20422;-88
2023/05/06 14:44:16;;;;;;;3.08;2.10;;;;;;;;;;5086187;28;20091;-87
2023/05/06 14:46:41;;;;;;;2.47;1.85;;;;;;;;;;5089234;28;20020;-89
2023/05/06 14:49:06;;;;;;;4.25;1.90;;;;;;;;;;5084742;28;20428;-88
2023/05/06 14:51:33;;;;;;;3.67;1.88;;;;;;;;;;5080376;28;20020;-89
2023/05/06 14:53:58;;;;;;;3.28;2.78;;;;;;;;;;5074105;28;20033;-89
2023/05/06 14:56:24;;;;;;;3.60;2.13;;;;;;;;;;5083126;28;20027;-84
2023/05/06 14:58:49;;;;;;;2.65;1.80;;;;;;;;;;5076390;28;20031;-83
2023/05/06 15:01:15;;;;;;;3.95;1.92;;;;;;;;;;5077315;28;20024;-88
2023/05/06 15:03:40;;;;;;;3.30;2.17;;;;;;;;;;5082700;28;20024;-86
2023/05/06 15:06:06;;;;;;;2.15;1.85;;;;;;;;;;5082515;28;20020;-87
2023/05/06 15:08:31;;;;;;;4.50;2.47;;;;;;;;;;5079127;28;20016;-89
2023/05/06 15:10:57;;;;;;;2.67;1.73;;;;;;;;;;5078698;28;20089;-87
2023/05/06 15:13:23;;;;;;;5.82;1.90;;;;;;;;;;5077029;28;20017;-89
2023/05/06 15:15:49;;;;;;;2.55;1.55;;;;;;;;;;5083599;28;20031;-85